Time,TemperatureF,DewpointF,PressureIn,WindDirection,WindDirectionDegrees,WindSpeedMPH,WindSpeedGustMPH,Humidity,HourlyPrecipIn,Conditions,Clouds,dailyrainin,SoftwareType,DateUTC
2013-08-17 00:04:00,67.5,57.0,30.23,West,262,0.0,8.0,68,0.00,,,0.00,weatherlink.com 1.10,2013-08-17 04:04:00,
2013-08-17 00:19:00,67.3,57.0,30.24,WNW,301,3.0,8.0,69,0.00,,,0.00,weatherlink.com 1.10,2013-08-17 04:19:00,
2013-08-17 00:34:00,67.2,57.0,30.24,SSW,203,1.0,9.0,69,0.00,,,0.00,weatherlink.com 1.10,2013-08-17 04:34:00,
2013-08-17 00:49:00,66.7,57.0,30.24,West,267,0.0,4.0,70,0.00,,,0.00,weatherlink.com 1.10,2013-08-17 04:49:00,
2013-08-17 01:04:00,66.4,56.0,30.24,West,281,5.0,5.0,70,0.00,,,0.00,weatherlink.com 1.10,2013-08-17 05:04:00,
2013-08-17 01:19:00,66.3,57.0,30.25,WNW,291,3.0,5.0,71,0.00,,,0.00,weatherlink.com 1.10,2013-08-17 05:19:00,
2013-08-17 01:34:00,66.1,56.0,30.24,NW,312,7.0,7.0,71,0.00,,,0.00,weatherlink.com 1.10,2013-08-17 05:34:00,
2013-08-17 01:49:00,65.8,56.0,30.25,WNW,284,4.0,8.0,71,0.00,,,0.00,weatherlink.com 1.10,2013-08-17 05:49:00,
2013-08-17 02:04:00,65.7,56.0,30.25,WNW,295,5.0,7.0,71,0.00,,,0.00,weatherlink.com 1.10,2013-08-17 06:04:00,
2013-08-17 02:19:00,65.5,56.0,30.25,WSW,243,4.0,8.0,72,0.00,,,0.00,weatherlink.com 1.10,2013-08-17 06:19:00,
2013-08-17 02:34:00,65.2,56.0,30.25,NW,306,2.0,5.0,72,0.00,,,0.00,weatherlink.com 1.10,2013-08-17 06:34:00,
2013-08-17 02:49:00,65.1,56.0,30.25,West,269,0.0,4.0,73,0.00,,,0.00,weatherlink.com 1.10,2013-08-17 06:49:00,
2013-08-17 03:04:00,65.2,56.0,30.25,WNW,300,4.0,6.0,73,0.00,,,0.00,weatherlink.com 1.10,2013-08-17 07:04:00,
2013-08-17 03:19:00,65.0,56.0,30.24,WNW,303,1.0,6.0,73,0.00,,,0.00,weatherlink.com 1.10,2013-08-17 07:19:00,
2013-08-17 03:34:00,64.8,56.0,30.25,WNW,295,2.0,5.0,74,0.00,,,0.00,weatherlink.com 1.10,2013-08-17 07:34:00,
2013-08-17 03:49:00,64.7,56.0,30.25,WNW,299,3.0,4.0,74,0.00,,,0.00,weatherlink.com 1.10,2013-08-17 07:49:00,
2013-08-17 04:04:00,64.6,56.0,30.25,NW,321,1.0,4.0,74,0.00,,,0.00,weatherlink.com 1.10,2013-08-17 08:04:00,
2013-08-17 04:20:00,64.5,56.0,30.25,West,278,0.0,5.0,75,0.00,,,0.00,weatherlink.com 1.10,2013-08-17 08:20:00,
2013-08-17 04:35:00,64.1,56.0,30.25,WSW,250,0.0,4.0,76,0.00,,,0.00,weatherlink.com 1.10,2013-08-17 08:35:00,
2013-08-17 04:50:00,63.9,56.0,30.25,WNW,295,1.0,5.0,76,0.00,,,0.00,weatherlink.com 1.10,2013-08-17 08:50:00,
2013-08-17 05:05:00,63.8,56.0,30.26,WSW,257,1.0,4.0,76,0.00,,,0.00,weatherlink.com 1.10,2013-08-17 09:05:00,
2013-08-17 05:20:00,63.6,56.0,30.26,NNW,332,4.0,6.0,76,0.00,,,0.00,weatherlink.com 1.10,2013-08-17 09:20:00,
2013-08-17 05:35:00,63.3,56.0,30.27,NNW,338,2.0,7.0,77,0.00,,,0.00,weatherlink.com 1.10,2013-08-17 09:35:00,
2013-08-17 05:50:00,63.0,56.0,30.27,NW,304,1.0,6.0,77,0.00,,,0.00,weatherlink.com 1.10,2013-08-17 09:50:00,
2013-08-17 06:05:00,62.7,55.0,30.27,West,267,3.0,7.0,77,0.00,,,0.00,weatherlink.com 1.10,2013-08-17 10:05:00,
2013-08-17 06:20:00,62.6,55.0,30.28,NW,322,3.0,6.0,77,0.00,,,0.00,weatherlink.com 1.10,2013-08-17 10:20:00,
2013-08-17 06:35:00,63.3,55.0,30.28,NNW,335,2.0,7.0,75,0.00,,,0.00,weatherlink.com 1.10,2013-08-17 10:35:00,
2013-08-17 06:50:00,63.9,55.0,30.28,NW,319,3.0,5.0,73,0.00,,,0.00,weatherlink.com 1.10,2013-08-17 10:50:00,
2013-08-17 07:05:00,64.2,55.0,30.28,NW,322,3.0,6.0,72,0.00,,,0.00,weatherlink.com 1.10,2013-08-17 11:05:00,
2013-08-17 07:20:00,65.1,55.0,30.28,NW,308,2.0,5.0,71,0.00,,,0.00,weatherlink.com 1.10,2013-08-17 11:20:00,
2013-08-17 07:35:00,65.8,55.0,30.28,West,273,2.0,4.0,69,0.00,,,0.00,weatherlink.com 1.10,2013-08-17 11:35:00,
2013-08-17 07:50:00,66.4,56.0,30.29,West,262,2.0,5.0,69,0.00,,,0.00,weatherlink.com 1.10,2013-08-17 11:50:00,
2013-08-17 08:05:00,67.8,57.0,30.29,WNW,301,0.0,3.0,68,0.00,,,0.00,weatherlink.com 1.10,2013-08-17 12:05:00,
2013-08-17 08:20:00,67.7,56.0,30.29,WNW,301,2.0,5.0,67,0.00,,,0.00,weatherlink.com 1.10,2013-08-17 12:20:00,
2013-08-17 08:35:00,68.9,57.0,30.29,NW,318,3.0,4.0,65,0.00,,,0.00,weatherlink.com 1.10,2013-08-17 12:35:00,
2013-08-17 08:50:00,69.0,57.0,30.30,West,259,3.0,5.0,65,0.00,,,0.00,weatherlink.com 1.10,2013-08-17 12:50:00,
2013-08-17 09:05:00,69.9,57.0,30.30,NW,324,0.0,5.0,63,0.00,,,0.00,weatherlink.com 1.10,2013-08-17 13:05:00,
2013-08-17 09:20:00,71.5,57.0,30.30,NW,304,1.0,3.0,61,0.00,,,0.00,weatherlink.com 1.10,2013-08-17 13:20:00,
2013-08-17 09:35:00,73.3,57.0,30.30,ENE,70,6.0,6.0,57,0.00,,,0.00,weatherlink.com 1.10,2013-08-17 13:35:00,
2013-08-17 09:50:00,73.0,55.0,30.31,East,101,3.0,8.0,53,0.00,,,0.00,weatherlink.com 1.10,2013-08-17 13:50:00,
2013-08-17 10:05:00,73.2,56.0,30.31,ESE,109,5.0,6.0,55,0.00,,,0.00,weatherlink.com 1.10,2013-08-17 14:05:00,
2013-08-17 10:20:00,72.7,55.0,30.31,ENE,61,1.0,9.0,55,0.00,,,0.00,weatherlink.com 1.10,2013-08-17 14:20:00,
2013-08-17 10:35:00,72.7,56.0,30.32,East,86,3.0,9.0,56,0.00,,,0.00,weatherlink.com 1.10,2013-08-17 14:35:00,
2013-08-17 10:50:00,72.4,57.0,30.32,ESE,120,7.0,8.0,58,0.00,,,0.00,weatherlink.com 1.10,2013-08-17 14:50:00,
2013-08-17 11:05:00,73.2,57.0,30.32,ESE,109,1.0,10.0,58,0.00,,,0.00,weatherlink.com 1.10,2013-08-17 15:05:00,
2013-08-17 11:20:00,72.9,57.0,30.32,ENE,74,5.0,9.0,58,0.00,,,0.00,weatherlink.com 1.10,2013-08-17 15:20:00,
2013-08-17 11:35:00,72.9,57.0,30.32,NE,53,8.0,9.0,58,0.00,,,0.00,weatherlink.com 1.10,2013-08-17 15:35:00,
2013-08-17 11:50:00,72.7,56.0,30.32,NNE,27,3.0,8.0,57,0.00,,,0.00,weatherlink.com 1.10,2013-08-17 15:50:00,
2013-08-17 12:05:00,73.6,57.0,30.32,ENE,71,6.0,8.0,57,0.00,,,0.00,weatherlink.com 1.10,2013-08-17 16:05:00,
2013-08-17 12:20:00,73.3,57.0,30.32,East,86,3.0,9.0,57,0.00,,,0.00,weatherlink.com 1.10,2013-08-17 16:20:00,
2013-08-17 12:36:00,73.9,57.0,30.31,SE,143,7.0,11.0,56,0.00,,,0.00,weatherlink.com 1.10,2013-08-17 16:36:00,
2013-08-17 12:51:00,73.6,57.0,30.31,East,87,6.0,8.0,56,0.00,,,0.00,weatherlink.com 1.10,2013-08-17 16:51:00,
2013-08-17 13:06:00,73.7,56.0,30.31,NE,46,3.0,8.0,55,0.00,,,0.00,weatherlink.com 1.10,2013-08-17 17:06:00,
2013-08-17 13:21:00,72.5,56.0,30.31,NE,37,4.0,11.0,56,0.00,,,0.00,weatherlink.com 1.10,2013-08-17 17:21:00,
2013-08-17 13:36:00,72.8,56.0,30.31,ENE,72,7.0,12.0,55,0.00,,,0.00,weatherlink.com 1.10,2013-08-17 17:36:00,
2013-08-17 13:51:00,72.7,55.0,30.31,NE,39,5.0,11.0,55,0.00,,,0.00,weatherlink.com 1.10,2013-08-17 17:51:00,
2013-08-17 14:06:00,74.3,56.0,30.30,ENE,73,4.0,11.0,54,0.00,,,0.00,weatherlink.com 1.10,2013-08-17 18:06:00,
2013-08-17 14:21:00,74.2,55.0,30.30,East,79,4.0,9.0,52,0.00,,,0.00,weatherlink.com 1.10,2013-08-17 18:21:00,
2013-08-17 14:36:00,73.7,54.0,30.30,ENE,72,6.0,10.0,50,0.00,,,0.00,weatherlink.com 1.10,2013-08-17 18:36:00,
2013-08-17 14:51:00,75.0,54.0,30.30,NE,50,4.0,9.0,48,0.00,,,0.00,weatherlink.com 1.10,2013-08-17 18:51:00,
2013-08-17 15:06:00,74.0,54.0,30.30,ESE,108,2.0,10.0,49,0.00,,,0.00,weatherlink.com 1.10,2013-08-17 19:06:00,
2013-08-17 15:21:00,74.8,55.0,30.29,SE,146,3.0,7.0,51,0.00,,,0.00,weatherlink.com 1.10,2013-08-17 19:21:00,
2013-08-17 15:36:00,75.2,54.0,30.29,East,84,2.0,8.0,48,0.00,,,0.00,weatherlink.com 1.10,2013-08-17 19:36:00,
2013-08-17 15:51:00,74.5,53.0,30.28,ENE,75,4.0,9.0,47,0.00,,,0.00,weatherlink.com 1.10,2013-08-17 19:51:00,
2013-08-17 16:06:00,74.9,53.0,30.28,East,82,5.0,8.0,47,0.00,,,0.00,weatherlink.com 1.10,2013-08-17 20:06:00,
2013-08-17 16:21:00,74.7,52.0,30.29,ENE,60,5.0,8.0,46,0.00,,,0.00,weatherlink.com 1.10,2013-08-17 20:21:00,
2013-08-17 16:36:00,74.6,53.0,30.28,ENE,64,2.0,8.0,47,0.00,,,0.00,weatherlink.com 1.10,2013-08-17 20:36:00,
2013-08-17 16:51:00,74.5,54.0,30.29,East,84,4.0,9.0,49,0.00,,,0.00,weatherlink.com 1.10,2013-08-17 20:51:00,
2013-08-17 17:06:00,74.8,54.0,30.29,ENE,57,5.0,7.0,48,0.00,,,0.00,weatherlink.com 1.10,2013-08-17 21:06:00,
2013-08-17 17:21:00,74.4,53.0,30.29,East,101,5.0,7.0,48,0.00,,,0.00,weatherlink.com 1.10,2013-08-17 21:21:00,
2013-08-17 17:36:00,73.8,54.0,30.29,East,92,6.0,8.0,51,0.00,,,0.00,weatherlink.com 1.10,2013-08-17 21:36:00,
2013-08-17 17:51:00,73.2,54.0,30.29,ENE,68,3.0,4.0,51,0.00,,,0.00,weatherlink.com 1.10,2013-08-17 21:51:00,
2013-08-17 18:06:00,73.7,54.0,30.29,ENE,58,5.0,7.0,50,0.00,,,0.00,weatherlink.com 1.10,2013-08-17 22:06:00,
2013-08-17 18:21:00,73.9,54.0,30.29,ESE,115,4.0,5.0,50,0.00,,,0.00,weatherlink.com 1.10,2013-08-17 22:21:00,
2013-08-17 18:36:00,73.8,53.0,30.29,East,89,2.0,5.0,49,0.00,,,0.00,weatherlink.com 1.10,2013-08-17 22:36:00,
2013-08-17 18:51:00,73.5,54.0,30.29,East,100,2.0,6.0,51,0.00,,,0.00,weatherlink.com 1.10,2013-08-17 22:51:00,
2013-08-17 19:06:00,71.8,56.0,30.29,ENE,57,1.0,6.0,57,0.00,,,0.00,weatherlink.com 1.10,2013-08-17 23:06:00,
2013-08-17 19:21:00,71.1,56.0,30.29,ENE,77,1.0,3.0,60,0.00,,,0.00,weatherlink.com 1.10,2013-08-17 23:21:00,
2013-08-17 19:36:00,71.0,57.0,30.29,ENE,74,2.0,4.0,62,0.00,,,0.00,weatherlink.com 1.10,2013-08-17 23:36:00,
2013-08-17 19:51:00,70.6,58.0,30.29,SE,146,0.0,4.0,65,0.00,,,0.00,weatherlink.com 1.10,2013-08-17 23:51:00,
2013-08-17 20:06:00,69.6,59.0,30.29,NE,46,1.0,5.0,69,0.00,,,0.00,weatherlink.com 1.10,2013-08-18 00:06:00,
2013-08-17 20:21:00,69.6,60.0,30.30,East,98,5.0,6.0,71,0.00,,,0.00,weatherlink.com 1.10,2013-08-18 00:21:00,
2013-08-17 20:36:00,69.3,60.0,30.30,ENE,57,0.0,2.0,71,0.00,,,0.00,weatherlink.com 1.10,2013-08-18 00:36:00,
2013-08-17 20:51:00,69.3,60.0,30.30,East,86,1.0,1.0,71,0.00,,,0.00,weatherlink.com 1.10,2013-08-18 00:51:00,
2013-08-17 21:06:00,69.4,60.0,30.30,East,92,0.0,1.0,71,0.00,,,0.00,weatherlink.com 1.10,2013-08-18 01:06:00,
2013-08-17 21:21:00,69.5,59.0,30.30,SW,220,0.0,3.0,70,0.00,,,0.00,weatherlink.com 1.10,2013-08-18 01:21:00,
2013-08-17 21:36:00,69.5,59.0,30.31,SE,145,0.0,5.0,69,0.00,,,0.00,weatherlink.com 1.10,2013-08-18 01:36:00,
2013-08-17 21:51:00,69.5,58.0,30.31,ESE,111,0.0,3.0,66,0.00,,,0.00,weatherlink.com 1.10,2013-08-18 01:51:00,
2013-08-17 22:06:00,69.2,57.0,30.30,SSE,166,0.0,1.0,65,0.00,,,0.00,weatherlink.com 1.10,2013-08-18 02:06:00,
2013-08-17 22:21:00,69.2,57.0,30.31,SW,228,0.0,2.0,65,0.00,,,0.00,weatherlink.com 1.10,2013-08-18 02:21:00,
2013-08-17 22:36:00,69.0,57.0,30.31,SE,146,0.0,2.0,66,0.00,,,0.00,weatherlink.com 1.10,2013-08-18 02:36:00,
2013-08-17 22:51:00,68.8,57.0,30.31,SSE,167,0.0,3.0,67,0.00,,,0.00,weatherlink.com 1.10,2013-08-18 02:51:00,
2013-08-17 23:06:00,68.6,58.0,30.31,SSE,148,0.0,2.0,69,0.00,,,0.00,weatherlink.com 1.10,2013-08-18 03:06:00,
2013-08-17 23:21:00,68.4,58.0,30.32,SE,132,1.0,3.0,70,0.00,,,0.00,weatherlink.com 1.10,2013-08-18 03:21:00,
2013-08-17 23:36:00,68.3,59.0,30.32,SW,214,0.0,3.0,71,0.00,,,0.00,weatherlink.com 1.10,2013-08-18 03:36:00,
2013-08-17 23:51:00,68.2,58.0,30.31,SSW,211,0.0,4.0,70,0.00,,,0.00,weatherlink.com 1.10,2013-08-18 03:51:00,